الصفحة الرئيسية
METAR-TAF:

METAR-TAF

مطار :

مطار جبل طارق

جبل طارق, جبل طارق

دائرة عرض: 36-09N, خط طول: 005-21W, ارتفاع: 5 متر

مراقبة الطقس الحالي

تاريخ ووقت الإصدار 44 دقيقة قبل الساعة 23:50UTC
ريح 2 عقدة من الشمال/الشمال الغربي
درجة الحرارة 19°درجة مئوية
الرطوبة 83%
ضغط 1016 hPa
الرؤية 10 كم أو أكثر

METAR: LXGB 162350Z AUTO 34002KT 9999 // SCT010/// BKN050/// 19/16 Q1016

زمن: 02:34 (00:34 UTC)

توقعات

تاريخ ووقت الإصدار 8ساعات و 16 دقيقة قبل الساعة 16:18UTC
التوقعات صالحة من16 الساعة 18 UTC إلى 16 الساعة 22 UTC
ريح 8 عقدة من الغرب
الرؤية 10 كم أو أكثر
غيوم قليلة على ارتفاع 4500 قدم

TAF: LXGB 161618Z 1618/1622 26008KT 9999 FEW045

أرصاد الطقس والتوقعات من أكثر من 4000 مطار (تقارير الطقس للمطار METAR والتنبؤ بالطقس بالمطارTAF).

المحطات المتاحة هي النقط الصفراء والحمراء على الخريطة.

حرك المؤشر فوق النقطة لمعرفة اسم المحطة.

ثم انقر لمعرفة أرصاد وتوقعات الطقس.

لتغيير الخارطة: اضغط على الأزرار الخضراء مع رمز الصليب الأسود للتكبير. على الزر الأخضر مع شرطة للتصغير، أو على الأسهم الخضراء للخرائط المجاورة.


METAR-TAF: